CheckWX is a tool to help pilots better visualize weather data.  It is not intended as a substitute for an official pre-flight weather briefing.

02:08:33 UTC

KDRO METAR
Durango-La Plata County Airport
Durango, Colorado, USA
Current

16 mins ago

KDRO 180153Z AUTO 10006KT 1/2SM SN FZFG VV006 M05/M05 A2980 RMK AO2 SLP165 P0004 T10501050
Observed
Feb-18 @ 01:53 UTC
Wind
  • 100° at 6 KTS
Visibility
1/2 SM
Flight Rules
LIFR
Conditions
Snow, Freezing Fog
Cloud Levels
  • Vertical visibility at 600' AGL
Temperature
-5°C / 23°F
Dewpoint
-5°C / 23°F
Humidity
100%
Altimeter
29.8" Hg
Pressure
1016.5 hPa
Current Rain
0.04"
Previous

27 mins ago

KDRO 180142Z AUTO 07004KT 1/2SM SN FZFG BKN007 OVC021 M05/M05 A2980 RMK AO2 P0003 T10501050
Observed
Feb-18 @ 01:42 UTC
Wind
  • 070° at 4 KTS
Visibility
1/2 SM
Flight Rules
LIFR
Conditions
Snow, Freezing Fog
Cloud Levels
  • Broken at 700' AGL
  • Overcast at 2,100' AGL
Temperature
-5°C / 23°F
Dewpoint
-5°C / 23°F
Humidity
100%
Altimeter
29.8" Hg
Pressure
1009.12 hPa
Current Rain
0.03"
Previous

51 mins ago

KDRO 180118Z AUTO 10006KT 1 1/2SM -SN BR OVC010 M05/M05 A2980 RMK AO2 P0000 T10501050
Observed
Feb-18 @ 01:18 UTC
Wind
  • 100° at 6 KTS
Visibility
1 1/2 SM
Flight Rules
IFR
Conditions
Light Snow, Mist
Cloud Levels
  • Overcast at 1,000' AGL
Temperature
-5°C / 23°F
Dewpoint
-5°C / 23°F
Humidity
100%
Altimeter
29.8" Hg
Pressure
1009.12 hPa
Current Rain
0.01"